Glendon, North Carolina
Current Conditions -  °F | °C
As of 9:55 AM on Monday 24 Nov 2014 (Local Time) from K5W8 Reporting Station
Scattered Clouds Scattered Clouds  
Wind Chill: 18°   Ceiling: Unl
Heat Index: 18°   Visibility: 10mi
Dew Point: 15°   Wind: 14mph
Humidity: 82%   Direction: 210°SSW
Pressure: 29.83"   Gusts: 20mph
Location:  35.4616°N, 79.5721°W
Report Text: K5W8 241455Z AUTO 21012G17KT 10SM SCT018 SCT025 18/15 A2983 RMK AO2 T01790148
Loading
Personal Weather Stations






























Interactive Weather Map New forecast layout! Learn more

10-Day Weather Forecast

Advertisements
Track Severe Weather on mobile